Time;durP1;ratioP1;P1;durP2;ratioP2;P2;SDS_P1;SDS_P2;PMS_P1;PMS_P2;Temp;Humidity;BMP_temperature;BMP_pressure;BME280_temperature;BME280_humidity;BME280_pressure;Samples;Min_cycle;Max_cycle;Signal;HPM_P1;HPM_P2
2021/11/30 00:00:10;;;;;;;;;;;;;;;14.61;65.27;99407.66;5078054;28;987;-71
2021/11/30 00:02:37;;;;;;;;;;;;;;;14.62;65.95;99412.00;5077396;28;1986;-64
2021/11/30 00:05:05;;;;;;;;;;;;;;;14.61;65.72;99420.97;5077639;28;1026;-71
2021/11/30 00:07:32;;;;;;;;;;;;;;;14.61;64.93;99415.63;5077271;28;1020;-71
2021/11/30 00:12:57;;;;;;;;;;;;;;;14.58;65.71;99421.22;5016175;28;1450;-63
2021/11/30 00:15:24;;;;;;;;;;;;;;;14.60;64.63;99418.44;5015928;28;1029;-65
2021/11/30 00:17:50;;;;;;;;;;;;;;;14.59;65.79;99412.28;5042515;28;1117;-71
2021/11/30 00:20:18;;;;;;;;;;;;;;;14.59;65.87;99414.94;5077300;28;996;-71
2021/11/30 00:22:44;;;;;;;;;;;;;;;14.58;65.38;99426.53;5077253;28;1910;-63
2021/11/30 00:25:11;;;;;;;;;;;;;;;14.59;64.74;99416.78;5077321;28;1039;-63
2021/11/30 00:27:37;;;;;;;;;;;;;;;14.60;64.81;99429.06;5077055;28;1074;-64
2021/11/30 00:30:04;;;;;;;;;;;;;;;14.58;64.73;99431.03;5077196;28;1051;-71
2021/11/30 00:32:30;;;;;;;;;;;;;;;14.60;65.75;99429.91;5077300;28;977;-63
2021/11/30 00:34:57;;;;;;;;;;;;;;;14.58;65.37;99447.81;5077158;28;976;-63
2021/11/30 00:37:25;;;;;;;;;;;;;;;14.59;65.78;99412.28;5077145;28;992;-63
2021/11/30 00:39:51;;;;;;;;;;;;;;;14.58;65.26;99410.59;5077050;28;1053;-64
2021/11/30 00:42:21;;;;;;;;;;;;;;;14.58;65.05;99410.59;5076584;28;1898;-71
2021/11/30 00:44:49;;;;;;;;;;;;;;;14.60;65.65;99427.25;5077005;28;1185;-63
2021/11/30 00:47:23;;;;;;;;;;;;;;;14.57;65.11;99413.41;5076900;28;961;-71
2021/11/30 00:49:50;;;;;;;;;;;;;;;14.58;65.66;99429.22;5076842;28;1047;-71
2021/11/30 00:52:17;;;;;;;;;;;;;;;14.58;65.54;99439.00;5076832;28;1025;-71
2021/11/30 00:54:45;;;;;;;;;;;;;;;14.55;65.83;99434.78;5076353;28;1043;-71
2021/11/30 00:57:12;;;;;;;;;;;;;;;14.57;65.33;99442.66;5075536;28;1123;-63
2021/11/30 00:59:39;;;;;;;;;;;;;;;14.56;65.92;99449.78;5076709;28;1043;-71
2021/11/30 01:02:05;;;;;;;;;;;;;;;14.57;65.30;99450.66;5076339;28;1455;-71
2021/11/30 01:04:32;;;;;;;;;;;;;;;14.55;65.81;99437.44;5076555;28;1973;-63
2021/11/30 01:06:58;;;;;;;;;;;;;;;14.55;65.81;99432.13;5076630;28;977;-64
2021/11/30 01:09:25;;;;;;;;;;;;;;;14.55;65.81;99432.13;5076503;28;964;-71
2021/11/30 01:11:53;;;;;;;;;;;;;;;14.58;64.98;99431.03;5076104;28;1071;-64
2021/11/30 01:14:20;;;;;;;;;;;;;;;14.55;64.80;99418.00;5076048;28;1067;-63
2021/11/30 01:16:47;;;;;;;;;;;;;;;14.56;65.27;99431.16;5076019;28;1028;-71
2021/11/30 01:19:14;;;;;;;;;;;;;;;14.54;65.32;99430.44;5076130;28;975;-63
2021/11/30 01:21:41;;;;;;;;;;;;;;;14.54;64.31;99427.78;5076237;28;977;-63
2021/11/30 01:24:07;;;;;;;;;;;;;;;14.55;65.11;99426.81;5076073;28;1975;-72
2021/11/30 01:26:34;;;;;;;;;;;;;;;14.58;64.82;99433.69;5076126;28;1000;-71
2021/11/30 01:29:03;;;;;;;;;;;;;;;14.57;64.58;99440.00;5076058;28;968;-71
2021/11/30 01:31:29;;;;;;;;;;;;;;;14.54;64.52;99441.06;5076046;28;921;-71
2021/11/30 01:33:56;;;;;;;;;;;;;;;14.53;64.56;99458.03;5075998;28;1036;-70
2021/11/30 01:36:22;;;;;;;;;;;;;;;14.54;65.88;99449.06;5075833;28;1030;-63
2021/11/30 01:38:49;;;;;;;;;;;;;;;14.55;65.46;99436.63;5075549;28;1126;-71
2021/11/30 01:41:16;;;;;;;;;;;;;;;14.52;64.94;99437.72;5075829;28;1030;-71
2021/11/30 01:43:43;;;;;;;;;;;;;;;14.56;65.76;99444.47;5075652;28;1906;-64
2021/11/30 01:46:15;;;;;;;;;;;;;;;14.54;65.22;99441.06;5075780;28;1075;-63
2021/11/30 01:51:27;;;;;;;;;;;;;;;14.52;64.26;99451.88;5075740;28;619;-71
2021/11/30 01:53:54;;;;;;;;;;;;;;;14.53;65.73;99444.72;5075381;28;1020;-71
2021/11/30 01:56:20;;;;;;;;;;;;;;;14.51;64.94;99439.53;5075190;28;1059;-63
2021/11/30 01:58:48;;;;;;;;;;;;;;;14.53;64.93;99439.41;5075494;28;1035;-63
2021/11/30 02:01:15;;;;;;;;;;;;;;;14.55;65.87;99439.28;5075102;28;1032;-71
2021/11/30 02:03:42;;;;;;;;;;;;;;;14.51;64.92;99442.19;5074914;28;1969;-70
2021/11/30 02:06:09;;;;;;;;;;;;;;;14.53;65.42;99450.06;5075344;28;975;-63
2021/11/30 02:08:35;;;;;;;;;;;;;;;14.53;65.15;99439.41;5074906;28;1043;-65
2021/11/30 02:11:03;;;;;;;;;;;;;;;14.50;64.57;99439.69;5075304;28;972;-72
2021/11/30 02:13:29;;;;;;;;;;;;;;;14.50;65.30;99435.22;5074996;28;1087;-64
2021/11/30 02:15:58;;;;;;;;;;;;;;;14.50;65.77;99439.69;5075266;28;1036;-71
2021/11/30 02:18:25;;;;;;;;;;;;;;;14.49;64.97;99449.47;5074939;28;1020;-72
2021/11/30 02:20:55;;;;;;;;;;;;;;;14.49;65.07;99459.28;5074810;28;1040;-63
2021/11/30 02:23:32;;;;;;;;;;;;;;;14.52;64.48;99453.69;5074760;28;1977;-63
2021/11/30 02:25:58;;;;;;;;;;;;;;;14.48;64.61;99450.47;5075101;28;1110;-63
2021/11/30 02:28:25;;;;;;;;;;;;;;;14.48;64.93;99442.50;5075067;28;1015;-64
2021/11/30 02:30:51;;;;;;;;;;;;;;;14.51;65.58;99452.00;5075001;28;980;-63
2021/11/30 02:33:18;;;;;;;;;;;;;;;14.47;65.25;99453.25;5075023;28;1035;-63
2021/11/30 02:35:44;;;;;;;;;;;;;;;14.50;65.44;99452.97;5074726;28;1020;-63
2021/11/30 02:38:12;;;;;;;;;;;;;;;14.49;65.75;99448.66;5075165;28;1027;-63
2021/11/30 02:40:39;;;;;;;;;;;;;;;14.51;65.27;99455.50;5074650;28;1017;-63
2021/11/30 02:43:05;;;;;;;;;;;;;;;14.48;65.69;99442.50;5074693;28;1905;-71
2021/11/30 02:45:32;;;;;;;;;;;;;;;14.45;65.21;99453.41;5074591;28;921;-71
2021/11/30 02:47:58;;;;;;;;;;;;;;;14.50;65.62;99461.81;5074952;28;1027;-63
2021/11/30 02:50:27;;;;;;;;;;;;;;;14.48;65.24;99460.25;5074606;28;1317;-72
2021/11/30 02:52:54;;;;;;;;;;;;;;;14.48;64.61;99450.47;5074800;28;991;-72
2021/11/30 02:55:22;;;;;;;;;;;;;;;14.45;64.61;99445.41;5074764;28;1004;-73
2021/11/30 02:57:48;;;;;;;;;;;;;;;14.45;65.72;99452.56;5074589;28;1422;-71
2021/11/30 03:00:15;;;;;;;;;;;;;;;14.47;64.44;99451.44;5074373;28;1084;-71
2021/11/30 03:02:41;;;;;;;;;;;;;;;14.46;65.20;99446.25;5071580;28;1573;-70
2021/11/30 03:05:08;;;;;;;;;;;;;;;14.46;64.49;99443.59;5073508;28;1901;-72
2021/11/30 03:07:37;;;;;;;;;;;;;;;14.46;65.35;99422.31;5074179;28;1097;-63
2021/11/30 03:10:05;;;;;;;;;;;;;;;14.46;65.39;99414.34;5074602;28;905;-72
2021/11/30 03:12:33;;;;;;;;;;;;;;;14.47;65.09;99427.50;5074556;28;1216;-63
2021/11/30 03:15:05;;;;;;;;;;;;;;;14.45;65.64;99420.66;5074464;28;1008;-63
2021/11/30 03:17:32;;;;;;;;;;;;;;;14.48;65.89;99431.84;5074267;28;1084;-71
2021/11/30 03:19:58;;;;;;;;;;;;;;;14.45;65.62;99421.47;5074191;28;1055;-70
2021/11/30 03:22:25;;;;;;;;;;;;;;;14.45;64.75;99420.66;5077993;28;1086;-71
2021/11/30 03:24:51;;;;;;;;;;;;;;;14.44;65.26;99417.16;5078156;28;1905;-63
2021/11/30 03:27:17;;;;;;;;;;;;;;;14.47;65.22;99416.88;5078024;28;1075;-71
2021/11/30 03:29:45;;;;;;;;;;;;;;;14.43;65.82;99407.47;5078349;28;954;-70
2021/11/30 03:33:59;;;;;;;;;;;;;;;14.44;65.81;99403.84;5078871;28;947;-71
2021/11/30 03:34:58;;;;;;;;;;;;;;;14.43;65.71;99404.81;5077911;28;790;-71
2021/11/30 03:37:24;;;;;;;;;;;;;;;14.42;64.67;99396.97;5078115;28;948;-71
2021/11/30 03:39:52;;;;;;;;;;;;;;;14.42;64.77;99399.63;5078139;28;976;-71
2021/11/30 03:42:18;;;;;;;;;;;;;;;14.42;65.74;99387.16;5077690;28;1036;-63
2021/11/30 03:44:46;;;;;;;;;;;;;;;14.44;65.37;99400.34;5077591;28;1909;-63
2021/11/30 03:47:13;;;;;;;;;;;;;;;14.42;64.78;99396.97;5078067;28;1095;-63
2021/11/30 03:49:39;;;;;;;;;;;;;;;14.41;65.02;99392.66;5077958;28;984;-63
2021/11/30 03:52:06;;;;;;;;;;;;;;;14.40;64.42;99397.09;5077571;28;1073;-63
2021/11/30 03:54:33;;;;;;;;;;;;;;;14.43;65.25;99393.34;5077472;28;1094;-71
2021/11/30 03:57:00;;;;;;;;;;;;;;;14.41;65.76;99385.50;5077888;28;1015;-71
2021/11/30 03:59:26;;;;;;;;;;;;;;;14.42;65.73;99365.06;5077807;28;1049;-71
2021/11/30 04:01:54;;;;;;;;;;;;;;;14.41;65.47;99360.75;5077645;28;1387;-63
2021/11/30 04:04:23;;;;;;;;;;;;;;;14.41;65.75;99356.25;5077108;28;2004;-71
2021/11/30 04:06:50;;;;;;;;;;;;;;;14.40;64.61;99362.53;5077681;28;810;-64
2021/11/30 04:09:17;;;;;;;;;;;;;;;14.42;65.77;99357.09;5077610;28;1015;-70
2021/11/30 04:11:43;;;;;;;;;;;;;;;14.40;65.86;99353.72;5077835;28;978;-71
2021/11/30 04:14:10;;;;;;;;;;;;;;;14.39;65.27;99358.22;5077595;28;969;-71
2021/11/30 04:16:36;;;;;;;;;;;;;;;14.41;65.87;99358.91;5077169;28;1048;-63
2021/11/30 04:19:04;;;;;;;;;;;;;;;14.40;64.92;99348.41;5077164;28;1028;-63
2021/11/30 04:21:31;;;;;;;;;;;;;;;14.39;64.92;99354.72;5077399;28;1064;-63
2021/11/30 04:23:58;;;;;;;;;;;;;;;14.39;64.99;99391.94;5077046;28;1905;-64
2021/11/30 04:26:24;;;;;;;;;;;;;;;14.42;65.57;99365.06;5077025;28;1012;-63
2021/11/30 04:28:51;;;;;;;;;;;;;;;14.41;65.27;99369.53;5077220;28;1023;-71
2021/11/30 04:31:17;;;;;;;;;;;;;;;14.39;65.05;99362.69;5076724;28;1020;-64
2021/11/30 04:33:44;;;;;;;;;;;;;;;14.39;65.35;99362.69;5076918;28;1007;-63
2021/11/30 04:36:12;;;;;;;;;;;;;;;14.40;65.82;99364.38;5075982;28;971;-64
2021/11/30 04:38:39;;;;;;;;;;;;;;;14.41;65.74;99371.38;5076824;28;1029;-63
2021/11/30 04:41:05;;;;;;;;;;;;;;;14.41;64.37;99350.94;5077019;28;991;-71
2021/11/30 04:43:34;;;;;;;;;;;;;;;14.38;65.01;99361.00;5076930;28;1971;-71
2021/11/30 04:46:04;;;;;;;;;;;;;;;14.39;65.92;99368.00;5076785;28;996;-71
2021/11/30 04:48:32;;;;;;;;;;;;;;;14.37;64.99;99359.34;5076976;28;1162;-64
2021/11/30 04:51:01;;;;;;;;;;;;;;;14.38;64.73;99366.31;5076947;28;1024;-71
2021/11/30 04:53:31;;;;;;;;;;;;;;;14.36;64.01;99390.38;5076818;28;963;-64
2021/11/30 04:55:57;;;;;;;;;;;;;;;14.41;65.01;99382.00;5076468;28;1067;-63
2021/11/30 04:58:24;;;;;;;;;;;;;;;14.37;64.49;99378.78;5076861;28;994;-64
2021/11/30 05:00:50;;;;;;;;;;;;;;;14.38;64.55;99387.59;5076732;28;974;-67
2021/11/30 05:03:17;;;;;;;;;;;;;;;14.38;64.38;99398.22;5076390;28;1524;-63
2021/11/30 05:05:43;;;;;;;;;;;;;;;14.38;65.48;99388.44;5076308;28;2004;-63
2021/11/30 05:08:10;;;;;;;;;;;;;;;14.37;64.55;99396.56;5076121;28;949;-64
2021/11/30 05:10:38;;;;;;;;;;;;;;;14.37;64.26;99407.22;5077264;28;984;-63
2021/11/30 05:13:04;;;;;;;;;;;;;;;14.37;65.81;99391.25;5076493;28;1033;-63
2021/11/30 05:15:31;;;;;;;;;;;;;;;14.35;64.76;99385.22;5076388;28;978;-70
2021/11/30 05:17:58;;;;;;;;;;;;;;;14.36;64.91;99398.38;5076067;28;1001;-63
2021/11/30 05:20:24;;;;;;;;;;;;;;;14.39;65.53;99407.91;5076257;28;1005;-63
2021/11/30 05:22:52;;;;;;;;;;;;;;;14.35;64.38;99410.00;5075972;28;1048;-69
2021/11/30 05:25:19;;;;;;;;;;;;;;;14.35;64.94;99402.03;5076106;28;1898;-64
2021/11/30 05:27:49;;;;;;;;;;;;;;;14.36;64.69;99394.88;5076134;28;948;-72
2021/11/30 05:30:18;;;;;;;;;;;;;;;14.34;65.19;99397.66;5075951;28;1025;-72
2021/11/30 05:32:45;;;;;;;;;;;;;;;14.31;65.05;99406.78;5076071;28;1047;-63
2021/11/30 05:35:12;;;;;;;;;;;;;;;14.37;65.25;99407.22;5075729;28;1025;-70
2021/11/30 05:37:38;;;;;;;;;;;;;;;14.34;65.04;99413.63;5075535;28;1028;-71
2021/11/30 05:40:05;;;;;;;;;;;;;;;14.36;65.20;99427.63;5075646;28;1016;-63
2021/11/30 05:42:32;;;;;;;;;;;;;;;14.33;65.58;99428.75;5075395;28;1206;-71
2021/11/30 05:45:00;;;;;;;;;;;;;;;14.33;65.74;99434.06;5075177;28;1977;-63
2021/11/30 05:47:26;;;;;;;;;;;;;;;14.35;64.65;99443.75;5076047;28;789;-63
2021/11/30 05:49:52;;;;;;;;;;;;;;;14.32;64.50;99437.72;5075672;28;982;-71
2021/11/30 05:52:20;;;;;;;;;;;;;;;14.37;64.81;99450.59;5075408;28;1074;-70
2021/11/30 05:54:46;;;;;;;;;;;;;;;14.33;65.55;99439.38;5075672;28;1007;-70
2021/11/30 05:57:18;;;;;;;;;;;;;;;14.36;65.25;99454.22;5075627;28;1064;-72
2021/11/30 05:59:44;;;;;;;;;;;;;;;14.35;64.69;99451.72;5075530;28;1495;-63
2021/11/30 06:02:12;;;;;;;;;;;;;;;14.33;64.11;99455.34;5075469;28;1388;-71
2021/11/30 06:04:39;;;;;;;;;;;;;;;14.33;65.19;99458.00;5075035;28;1992;-64
2021/11/30 06:07:05;;;;;;;;;;;;;;;14.30;64.78;99460.94;5075060;28;1088;-71
2021/11/30 06:09:33;;;;;;;;;;;;;;;14.32;64.96;99458.13;5075358;28;1027;-71
2021/11/30 06:12:00;;;;;;;;;;;;;;;14.33;65.25;99452.69;5075420;28;1045;-74
2021/11/30 06:14:26;;;;;;;;;;;;;;;14.31;64.31;99462.63;5075043;28;1102;-71
2021/11/30 06:16:53;;;;;;;;;;;;;;;14.32;64.44;99474.94;5074915;28;1015;-71
2021/11/30 06:19:21;;;;;;;;;;;;;;;14.30;64.12;99470.72;5075325;28;991;-71
2021/11/30 06:21:47;;;;;;;;;;;;;;;14.37;65.55;99489.66;5074897;28;997;-63
2021/11/30 06:24:14;;;;;;;;;;;;;;;14.33;65.49;99475.78;5075061;28;1981;-71
2021/11/30 06:26:41;;;;;;;;;;;;;;;14.31;65.14;99478.56;5075195;28;1031;-63
2021/11/30 06:29:07;;;;;;;;;;;;;;;14.31;64.25;99483.88;5075091;28;1061;-64
2021/11/30 06:31:34;;;;;;;;;;;;;;;14.31;65.78;99494.53;5074807;28;1047;-72
2021/11/30 06:34:01;;;;;;;;;;;;;;;14.32;64.67;99496.22;5075122;28;978;-70
2021/11/30 06:36:28;;;;;;;;;;;;;;;14.29;65.09;99499.13;5075221;28;1046;-71
2021/11/30 06:38:57;;;;;;;;;;;;;;;14.31;65.06;99521.13;5074974;28;975;-71
2021/11/30 06:41:24;;;;;;;;;;;;;;;14.31;65.88;99513.13;5074601;28;1083;-70
2021/11/30 06:43:50;;;;;;;;;;;;;;;14.30;65.66;99523.91;5074676;28;1019;-72
2021/11/30 06:46:19;;;;;;;;;;;;;;;14.35;65.73;99534.16;5075167;28;2027;-63
2021/11/30 06:48:45;;;;;;;;;;;;;;;14.28;64.32;99534.69;5074683;28;1011;-72
2021/11/30 06:51:12;;;;;;;;;;;;;;;14.28;64.75;99539.16;5074905;28;957;-63
2021/11/30 06:53:40;;;;;;;;;;;;;;;14.28;65.75;99542.69;5074533;28;1036;-72
2021/11/30 06:56:06;;;;;;;;;;;;;;;14.31;65.08;99547.72;5077934;28;1079;-70
2021/11/30 06:58:33;;;;;;;;;;;;;;;14.33;64.22;99560.88;5078809;28;1023;-63
2021/11/30 07:00:59;;;;;;;;;;;;;;;14.29;64.94;99560.28;5078702;28;1059;-71
2021/11/30 07:03:26;;;;;;;;;;;;;;;14.29;64.99;99568.28;5078626;28;1490;-63
2021/11/30 07:05:56;;;;;;;;;;;;;;;14.29;65.10;99560.28;5078434;28;1971;-72
2021/11/30 07:08:46;;;;;;;;;;;;;;;14.26;64.56;99563.22;5078438;28;1088;-71
2021/11/30 07:11:19;;;;;;;;;;;;;;;14.26;65.88;99571.19;5078319;28;1091;-72
2021/11/30 07:13:46;;;;;;;;;;;;;;;14.27;65.14;99583.53;5078460;28;1032;-63
2021/11/30 07:16:12;;;;;;;;;;;;;;;14.27;64.48;99588.00;5078665;28;1041;-64
2021/11/30 07:18:40;;;;;;;;;;;;;;;14.26;64.62;99581.81;5078290;28;1044;-71
2021/11/30 07:21:06;;;;;;;;;;;;;;;14.31;64.94;99600.06;5078267;28;982;-64
2021/11/30 07:23:33;;;;;;;;;;;;;;;14.26;65.59;99578.34;5078544;28;977;-71
2021/11/30 07:26:00;;;;;;;;;;;;;;;14.28;64.12;99598.50;5078475;28;1910;-70
2021/11/30 07:28:29;;;;;;;;;;;;;;;14.24;64.71;99581.13;5078425;28;1039;-63
2021/11/30 07:30:56;;;;;;;;;;;;;;;14.29;64.91;99597.53;5077950;28;1055;-63
2021/11/30 07:33:22;;;;;;;;;;;;;;;14.27;65.19;99599.47;5078104;28;988;-63
2021/11/30 07:35:49;;;;;;;;;;;;;;;14.26;65.52;99592.47;5078326;28;969;-64
2021/11/30 07:38:15;;;;;;;;;;;;;;;14.25;65.44;99590.78;5077859;28;1094;-70
2021/11/30 07:40:41;;;;;;;;;;;;;;;14.25;64.56;99606.75;5078172;28;1001;-71
2021/11/30 07:43:08;;;;;;;;;;;;;;;14.26;64.58;99603.09;5078316;28;1069;-71
2021/11/30 07:45:36;;;;;;;;;;;;;;;14.24;65.42;99621.00;5077958;28;1902;-63
2021/11/30 07:48:02;;;;;;;;;;;;;;;14.24;64.49;99606.88;5077997;28;1041;-71
2021/11/30 07:50:29;;;;;;;;;;;;;;;14.25;64.35;99611.22;5077664;28;1020;-71
2021/11/30 07:52:55;;;;;;;;;;;;;;;14.24;64.04;99609.53;5077941;28;968;-72
2021/11/30 07:55:23;;;;;;;;;;;;;;;14.24;64.42;99615.69;5077911;28;929;-64
2021/11/30 07:57:50;;;;;;;;;;;;;;;14.25;64.40;99628.03;5077916;28;954;-70
2021/11/30 08:00:18;;;;;;;;;;;;;;;14.23;64.22;99632.63;5077551;28;1285;-71
2021/11/30 08:02:47;;;;;;;;;;;;;;;14.25;64.43;99638.66;5077223;28;1498;-72
2021/11/30 08:05:14;;;;;;;;;;;;;;;14.21;64.58;99637.22;5077244;28;1914;-71
2021/11/30 08:07:41;;;;;;;;;;;;;;;14.23;65.17;99645.91;5077001;28;1053;-70
2021/11/30 08:10:09;;;;;;;;;;;;;;;14.22;65.16;99649.53;5077952;28;1008;-66
2021/11/30 08:12:36;;;;;;;;;;;;;;;14.25;65.46;99667.91;5077682;28;991;-64
2021/11/30 08:15:02;;;;;;;;;;;;;;;14.23;64.62;99672.50;5077657;28;1056;-63
2021/11/30 08:17:29;;;;;;;;;;;;;;;14.23;64.83;99672.50;5077450;28;1001;-63
2021/11/30 08:19:57;;;;;;;;;;;;;;;14.17;64.21;99667.72;5077464;28;1059;-71
2021/11/30 08:22:23;;;;;;;;;;;;;;;14.22;64.45;99672.63;5077076;28;1024;-71
2021/11/30 08:24:50;;;;;;;;;;;;;;;14.21;64.35;99668.31;5077404;28;1906;-71
2021/11/30 08:27:18;;;;;;;;;;;;;;;14.23;64.31;99685.81;5077316;28;955;-71
2021/11/30 08:29:47;;;;;;;;;;;;;;;14.23;64.11;99703.59;5076944;28;1028;-63
2021/11/30 08:32:14;;;;;;;;;;;;;;;14.24;64.83;99698.13;5076964;28;1079;-71
2021/11/30 08:34:41;;;;;;;;;;;;;;;14.22;63.94;99716.00;5077300;28;954;-71
2021/11/30 08:37:10;;;;;;;;;;;;;;;14.19;65.37;99708.31;5077166;28;984;-71
2021/11/30 08:39:37;;;;;;;;;;;;;;;14.19;64.18;99703.00;5076864;28;1156;-63
2021/11/30 08:42:05;;;;;;;;;;;;;;;14.19;65.03;99723.44;5077033;28;1048;-70
2021/11/30 08:44:31;;;;;;;;;;;;;;;14.22;64.08;99716.00;5077063;28;1065;-63
2021/11/30 08:46:58;;;;;;;;;;;;;;;14.19;64.43;99724.28;5076963;28;1902;-71
2021/11/30 08:49:25;;;;;;;;;;;;;;;14.19;64.77;99724.28;5076614;28;1017;-71
2021/11/30 08:51:52;;;;;;;;;;;;;;;14.21;64.80;99718.81;5076941;28;1038;-71
2021/11/30 08:54:19;;;;;;;;;;;;;;;14.19;64.03;99728.75;5076469;28;1095;-72
2021/11/30 08:56:46;;;;;;;;;;;;;;;14.20;64.28;99727.75;5076787;28;1018;-63
2021/11/30 08:59:12;;;;;;;;;;;;;;;14.24;64.21;99745.97;5076417;28;978;-71
2021/11/30 09:01:39;;;;;;;;;;;;;;;14.23;64.13;99752.28;5076646;28;1391;-71
2021/11/30 09:04:05;;;;;;;;;;;;;;;14.19;64.04;99748.19;5076400;28;1365;-63
2021/11/30 09:06:32;;;;;;;;;;;;;;;14.22;64.01;99744.44;5076115;28;1906;-71
2021/11/30 09:08:58;;;;;;;;;;;;;;;14.16;64.97;99748.44;5076210;28;1071;-71
2021/11/30 09:11:27;;;;;;;;;;;;;;;14.19;64.73;99752.69;5076233;28;1135;-71
2021/11/30 09:13:53;;;;;;;;;;;;;;;14.22;63.87;99757.72;5076411;28;992;-70
2021/11/30 09:16:21;;;;;;;;;;;;;;;14.20;64.54;99770.31;5076111;28;1103;-63
2021/11/30 09:18:47;;;;;;;;;;;;;;;14.18;64.44;99775.75;5075179;28;991;-63
2021/11/30 09:21:14;;;;;;;;;;;;;;;14.17;65.02;99774.06;5076316;28;982;-71
2021/11/30 09:23:43;;;;;;;;;;;;;;;14.17;64.54;99779.38;5076276;28;1043;-71
2021/11/30 09:26:10;;;;;;;;;;;;;;;14.18;64.12;99769.59;5075909;28;1906;-70
2021/11/30 09:28:38;;;;;;;;;;;;;;;14.16;64.32;99777.69;5076451;28;1033;-63
2021/11/30 09:31:04;;;;;;;;;;;;;;;14.19;63.96;99798.72;5076658;28;1106;-71
2021/11/30 09:33:31;;;;;;;;;;;;;;;14.15;65.62;99775.19;5076262;28;1096;-72
2021/11/30 09:35:57;;;;;;;;;;;;;;;14.15;64.23;99769.88;5076086;28;1004;-71
2021/11/30 09:38:24;;;;;;;;;;;;;;;14.15;64.07;99791.13;5075791;28;1036;-71
2021/11/30 09:40:57;;;;;;;;;;;;;;;14.15;64.02;99781.34;5075897;28;1064;-66
2021/11/30 09:43:23;;;;;;;;;;;;;;;14.15;64.02;99791.97;5075915;28;965;-71
2021/11/30 09:45:51;;;;;;;;;;;;;;;14.15;64.50;99796.44;5075788;28;1906;-63
2021/11/30 09:48:18;;;;;;;;;;;;;;;14.19;65.21;99814.66;5075761;28;996;-63
2021/11/30 09:50:45;;;;;;;;;;;;;;;14.17;64.08;99790.03;5075709;28;978;-72
2021/11/30 09:53:13;;;;;;;;;;;;;;;14.15;64.09;99802.59;5075304;28;981;-71
2021/11/30 09:55:41;;;;;;;;;;;;;;;14.11;64.30;99801.19;5075629;28;1010;-70
2021/11/30 09:58:08;;;;;;;;;;;;;;;14.18;64.07;99817.44;5075607;28;960;-63
2021/11/30 10:00:36;;;;;;;;;;;;;;;14.13;64.75;99818.69;5075684;28;1016;-71
2021/11/30 10:03:03;;;;;;;;;;;;;;;14.14;64.53;99814.19;5074924;28;1376;-64
2021/11/30 10:05:32;;;;;;;;;;;;;;;14.12;64.15;99813.47;5075022;28;1906;-63
2021/11/30 10:08:00;;;;;;;;;;;;;;;14.14;64.15;99819.50;5075347;28;1020;-72
2021/11/30 10:10:29;;;;;;;;;;;;;;;14.13;64.93;99821.34;5075141;28;1064;-70
2021/11/30 10:13:09;;;;;;;;;;;;;;;14.16;65.44;99830.88;5075397;28;972;-66
2021/11/30 10:15:49;;;;;;;;;;;;;;;14.11;64.19;99833.91;5075332;28;1132;-63
2021/11/30 10:18:17;;;;;;;;;;;;;;;14.11;64.17;99823.28;5075153;28;1198;-63
2021/11/30 10:20:44;;;;;;;;;;;;;;;14.12;65.37;99824.13;5074930;28;1055;-71
2021/11/30 10:23:10;;;;;;;;;;;;;;;14.11;64.07;99825.09;5074953;28;1071;-63
2021/11/30 10:25:38;;;;;;;;;;;;;;;14.09;63.79;99835.03;5074843;28;1977;-71
2021/11/30 10:28:06;;;;;;;;;;;;;;;14.13;64.25;99829.31;5075214;28;1068;-71
2021/11/30 10:30:33;;;;;;;;;;;;;;;14.13;64.04;99833.78;5074769;28;1171;-71
2021/11/30 10:33:03;;;;;;;;;;;;;;;14.15;64.05;99833.66;5075154;28;1060;-63
2021/11/30 10:35:31;;;;;;;;;;;;;;;14.11;64.81;99820.63;5074750;28;1040;-64
2021/11/30 10:37:59;;;;;;;;;;;;;;;14.13;65.38;99836.44;5075081;28;968;-71
2021/11/30 10:40:27;;;;;;;;;;;;;;;14.13;64.46;99841.78;5074999;28;1039;-63
2021/11/30 10:42:55;;;;;;;;;;;;;;;14.12;64.14;99845.38;5074621;28;1019;-63
2021/11/30 10:45:28;;;;;;;;;;;;;;;14.13;65.20;99853.25;5074624;28;1910;-71
2021/11/30 10:48:01;;;;;;;;;;;;;;;14.13;64.18;99857.72;5074655;28;1064;-71
2021/11/30 10:50:32;;;;;;;;;;;;;;;14.12;64.06;99862.19;5074893;28;1087;-71
2021/11/30 10:53:01;;;;;;;;;;;;;;;14.09;64.44;99867.75;5074960;28;1036;-63
2021/11/30 10:55:28;;;;;;;;;;;;;;;14.12;64.84;99862.19;5074533;28;1036;-64
2021/11/30 10:57:54;;;;;;;;;;;;;;;14.11;64.80;99867.63;5074603;28;995;-63
2021/11/30 11:00:24;;;;;;;;;;;;;;;14.11;64.32;99867.63;5074822;28;1068;-71
2021/11/30 11:03:00;;;;;;;;;;;;;;;14.12;64.29;99872.84;5074545;28;1443;-71
2021/11/30 11:05:28;;;;;;;;;;;;;;;14.10;64.95;99869.44;5074698;28;1905;-63
2021/11/30 11:08:00;;;;;;;;;;;;;;;14.12;64.26;99880.81;5074310;28;1083;-71
2021/11/30 11:10:27;;;;;;;;;;;;;;;14.12;64.17;99886.13;5074694;28;972;-71
2021/11/30 11:12:53;;;;;;;;;;;;;;;14.09;63.92;99882.88;5074635;28;976;-63
2021/11/30 11:15:34;;;;;;;;;;;;;;;14.13;64.56;99900.25;5074702;28;1499;-72
2021/11/30 11:18:17;;;;;;;;;;;;;;;14.13;65.05;99898.44;5074238;28;1048;-71
2021/11/30 11:20:44;;;;;;;;;;;;;;;14.09;64.31;99896.16;5074624;28;968;-63
2021/11/30 11:23:19;;;;;;;;;;;;;;;14.11;64.13;99919.00;5074714;28;995;-64
2021/11/30 11:25:45;;;;;;;;;;;;;;;14.04;64.64;99906.31;5074537;28;1910;-71
2021/11/30 11:28:12;;;;;;;;;;;;;;;14.10;64.33;99914.63;5074281;28;1043;-71
2021/11/30 11:30:39;;;;;;;;;;;;;;;14.07;64.06;99911.41;5074437;28;985;-63
2021/11/30 11:33:06;;;;;;;;;;;;;;;14.07;65.24;99930.00;5074504;28;1017;-63
2021/11/30 11:35:32;;;;;;;;;;;;;;;14.08;64.87;99923.69;5074167;28;1044;-64
2021/11/30 11:37:59;;;;;;;;;;;;;;;14.07;65.08;99928.19;5074043;28;894;-71
2021/11/30 11:40:27;;;;;;;;;;;;;;;14.06;64.63;99928.28;5074471;28;1047;-71
2021/11/30 11:42:56;;;;;;;;;;;;;;;14.07;64.31;99936.16;5076984;28;1009;-71
2021/11/30 11:45:22;;;;;;;;;;;;;;;14.07;64.60;99936.16;5078163;28;970;-63
2021/11/30 11:47:49;;;;;;;;;;;;;;;14.02;64.28;99938.31;5077822;28;1963;-65
2021/11/30 11:50:16;;;;;;;;;;;;;;;14.07;64.84;99940.63;5078071;28;1044;-63
2021/11/30 11:52:43;;;;;;;;;;;;;;;14.07;64.22;99943.28;5078013;28;1040;-71
2021/11/30 11:55:12;;;;;;;;;;;;;;;14.08;64.15;99955.59;5077898;28;1106;-63
2021/11/30 11:57:41;;;;;;;;;;;;;;;14.08;64.93;99951.13;5077574;28;1025;-71
2021/11/30 12:00:18;;;;;;;;;;;;;;;14.07;64.40;99945.97;5077823;28;1041;-71
2021/11/30 12:02:51;;;;;;;;;;;;;;;14.03;64.43;99953.31;5077300;28;1458;-64
2021/11/30 12:05:17;;;;;;;;;;;;;;;14.10;64.06;99974.94;5077932;28;970;-71
2021/11/30 12:07:57;;;;;;;;;;;;;;;14.07;64.73;99956.59;5077374;28;1906;-71
2021/11/30 12:10:23;;;;;;;;;;;;;;;14.04;65.15;99970.13;5077435;28;1220;-63
2021/11/30 12:13:19;;;;;;;;;;;;;;;14.06;65.13;99976.16;5077645;28;1048;-71
2021/11/30 12:16:00;;;;;;;;;;;;;;;14.03;64.59;99977.25;5077581;28;969;-63
2021/11/30 12:18:28;;;;;;;;;;;;;;;14.06;64.50;99978.81;5075501;28;1146;-71
2021/11/30 12:21:07;;;;;;;;;;;;;;;14.06;64.10;99978.81;5077176;28;1036;-63
2021/11/30 12:23:34;;;;;;;;;;;;;;;14.02;64.30;99974.72;5077154;28;993;-64
2021/11/30 12:26:00;;;;;;;;;;;;;;;14.05;64.74;99983.28;5077045;28;1906;-63
2021/11/30 12:28:36;;;;;;;;;;;;;;;14.03;64.31;99981.72;5077324;28;1051;-63
2021/11/30 12:31:02;;;;;;;;;;;;;;;14.02;64.27;99982.69;5077036;28;1067;-71
2021/11/30 12:33:31;;;;;;;;;;;;;;;14.04;65.03;99986.91;5077289;28;1027;-63
2021/11/30 12:35:58;;;;;;;;;;;;;;;14.01;63.89;99983.66;5076898;28;1095;-64
2021/11/30 12:38:26;;;;;;;;;;;;;;;14.05;64.76;99982.44;5076862;28;1024;-71
2021/11/30 12:40:56;;;;;;;;;;;;;;;14.05;64.04;100003.72;5076916;28;1147;-72
2021/11/30 12:43:24;;;;;;;;;;;;;;;14.06;65.64;99994.75;5077239;28;926;-64
2021/11/30 12:45:53;;;;;;;;;;;;;;;14.03;64.10;99990.53;5077093;28;1034;-63
2021/11/30 12:48:22;;;;;;;;;;;;;;;14.01;64.47;99991.63;5076807;28;1972;-70
2021/11/30 12:50:56;;;;;;;;;;;;;;;14.01;64.15;99992.47;5076674;28;1334;-64
2021/11/30 12:53:38;;;;;;;;;;;;;;;14.00;64.21;99995.25;5076743;28;1021;-70
2021/11/30 12:56:05;;;;;;;;;;;;;;;14.02;64.20;99999.47;5076507;28;1048;-63
2021/11/30 12:58:44;;;;;;;;;;;;;;;14.02;64.36;99998.63;5076509;28;1024;-71
2021/11/30 13:01:13;;;;;;;;;;;;;;;14.00;64.01;100008.53;5076717;28;1015;-71
2021/11/30 13:03:40;;;;;;;;;;;;;;;13.99;64.88;100005.03;5076191;28;1435;-70
2021/11/30 13:06:06;;;;;;;;;;;;;;;14.04;65.39;100013.47;5076237;28;1906;-64
2021/11/30 13:08:52;;;;;;;;;;;;;;;14.03;65.12;100016.28;5076384;28;1237;-71